sensor_id;sensor_type;location;lat;lon;timestamp;P1;durP1;ratioP1;P2;durP2;ratioP2
19406;SDS011;9839;53.364;-1.204;2023-05-17T00:02:16;9.37;;;2.97;;
19406;SDS011;9839;53.364;-1.204;2023-05-17T00:04:41;9.37;;;3.70;;
19406;SDS011;9839;53.364;-1.204;2023-05-17T00:07:09;10.73;;;2.60;;
19406;SDS011;9839;53.364;-1.204;2023-05-17T00:09:34;9.90;;;3.20;;
19406;SDS011;9839;53.364;-1.204;2023-05-17T00:12:00;8.67;;;2.67;;
19406;SDS011;9839;53.364;-1.204;2023-05-17T00:14:25;9.17;;;3.20;;
19406;SDS011;9839;53.364;-1.204;2023-05-17T00:16:50;13.27;;;3.33;;
19406;SDS011;9839;53.364;-1.204;2023-05-17T00:19:16;10.67;;;2.87;;
19406;SDS011;9839;53.364;-1.204;2023-05-17T00:21:42;12.43;;;3.10;;
19406;SDS011;9839;53.364;-1.204;2023-05-17T00:24:07;7.83;;;3.00;;
19406;SDS011;9839;53.364;-1.204;2023-05-17T00:26:33;10.10;;;2.77;;
19406;SDS011;9839;53.364;-1.204;2023-05-17T00:28:58;10.67;;;3.40;;
19406;SDS011;9839;53.364;-1.204;2023-05-17T00:31:24;12.83;;;3.43;;
19406;SDS011;9839;53.364;-1.204;2023-05-17T00:33:49;11.77;;;3.33;;
19406;SDS011;9839;53.364;-1.204;2023-05-17T00:36:15;10.50;;;2.97;;
19406;SDS011;9839;53.364;-1.204;2023-05-17T00:38:40;7.80;;;3.40;;
19406;SDS011;9839;53.364;-1.204;2023-05-17T00:41:06;13.47;;;2.77;;
19406;SDS011;9839;53.364;-1.204;2023-05-17T00:43:31;6.37;;;3.17;;
19406;SDS011;9839;53.364;-1.204;2023-05-17T00:45:56;10.63;;;2.97;;
19406;SDS011;9839;53.364;-1.204;2023-05-17T00:48:22;10.27;;;2.90;;
19406;SDS011;9839;53.364;-1.204;2023-05-17T00:50:50;7.27;;;3.07;;
19406;SDS011;9839;53.364;-1.204;2023-05-17T00:53:16;6.97;;;3.23;;
19406;SDS011;9839;53.364;-1.204;2023-05-17T00:55:43;10.73;;;3.10;;
19406;SDS011;9839;53.364;-1.204;2023-05-17T00:58:09;7.93;;;3.50;;
19406;SDS011;9839;53.364;-1.204;2023-05-17T01:00:36;8.93;;;3.17;;
19406;SDS011;9839;53.364;-1.204;2023-05-17T01:03:01;13.03;;;3.93;;
19406;SDS011;9839;53.364;-1.204;2023-05-17T01:05:27;15.03;;;4.37;;
19406;SDS011;9839;53.364;-1.204;2023-05-17T01:07:53;12.73;;;4.23;;
19406;SDS011;9839;53.364;-1.204;2023-05-17T01:10:19;16.33;;;4.57;;
19406;SDS011;9839;53.364;-1.204;2023-05-17T01:12:56;10.77;;;5.17;;
19406;SDS011;9839;53.364;-1.204;2023-05-17T01:15:44;18.17;;;4.77;;
19406;SDS011;9839;53.364;-1.204;2023-05-17T01:18:13;20.53;;;5.03;;
19406;SDS011;9839;53.364;-1.204;2023-05-17T01:20:53;11.50;;;4.83;;
19406;SDS011;9839;53.364;-1.204;2023-05-17T01:23:30;14.40;;;4.60;;
19406;SDS011;9839;53.364;-1.204;2023-05-17T01:26:37;12.17;;;4.37;;
19406;SDS011;9839;53.364;-1.204;2023-05-17T01:29:08;11.90;;;4.23;;
19406;SDS011;9839;53.364;-1.204;2023-05-17T01:31:34;14.70;;;4.80;;
19406;SDS011;9839;53.364;-1.204;2023-05-17T01:34:05;14.90;;;4.40;;
19406;SDS011;9839;53.364;-1.204;2023-05-17T01:36:31;15.10;;;4.60;;
19406;SDS011;9839;53.364;-1.204;2023-05-17T01:38:56;13.47;;;4.13;;
19406;SDS011;9839;53.364;-1.204;2023-05-17T01:41:36;16.97;;;4.67;;
19406;SDS011;9839;53.364;-1.204;2023-05-17T01:49:05;13.43;;;4.40;;
19406;SDS011;9839;53.364;-1.204;2023-05-17T01:51:44;19.63;;;4.37;;
19406;SDS011;9839;53.364;-1.204;2023-05-17T01:54:12;11.57;;;3.93;;
19406;SDS011;9839;53.364;-1.204;2023-05-17T01:56:43;17.70;;;4.90;;
19406;SDS011;9839;53.364;-1.204;2023-05-17T01:59:13;12.30;;;4.10;;
19406;SDS011;9839;53.364;-1.204;2023-05-17T02:01:40;12.90;;;4.53;;
19406;SDS011;9839;53.364;-1.204;2023-05-17T02:04:06;19.73;;;6.10;;
19406;SDS011;9839;53.364;-1.204;2023-05-17T02:06:31;23.20;;;5.23;;
19406;SDS011;9839;53.364;-1.204;2023-05-17T02:08:56;22.40;;;5.37;;
19406;SDS011;9839;53.364;-1.204;2023-05-17T02:11:25;15.43;;;4.93;;
19406;SDS011;9839;53.364;-1.204;2023-05-17T02:13:50;11.53;;;5.43;;
19406;SDS011;9839;53.364;-1.204;2023-05-17T02:16:15;19.37;;;4.77;;
19406;SDS011;9839;53.364;-1.204;2023-05-17T02:18:41;15.20;;;4.63;;
19406;SDS011;9839;53.364;-1.204;2023-05-17T02:21:06;13.80;;;5.07;;
19406;SDS011;9839;53.364;-1.204;2023-05-17T02:23:32;16.30;;;5.23;;
19406;SDS011;9839;53.364;-1.204;2023-05-17T02:25:57;10.33;;;4.40;;
19406;SDS011;9839;53.364;-1.204;2023-05-17T02:28:23;14.20;;;5.33;;
19406;SDS011;9839;53.364;-1.204;2023-05-17T02:30:48;9.23;;;4.50;;
19406;SDS011;9839;53.364;-1.204;2023-05-17T02:33:14;13.87;;;4.73;;
19406;SDS011;9839;53.364;-1.204;2023-05-17T02:35:39;12.87;;;4.50;;
19406;SDS011;9839;53.364;-1.204;2023-05-17T02:38:04;11.93;;;4.70;;
19406;SDS011;9839;53.364;-1.204;2023-05-17T02:40:30;12.53;;;5.03;;
19406;SDS011;9839;53.364;-1.204;2023-05-17T02:42:55;16.43;;;5.20;;
19406;SDS011;9839;53.364;-1.204;2023-05-17T02:45:20;19.07;;;5.23;;
19406;SDS011;9839;53.364;-1.204;2023-05-17T02:47:46;15.17;;;4.80;;
19406;SDS011;9839;53.364;-1.204;2023-05-17T02:50:11;11.13;;;4.10;;
19406;SDS011;9839;53.364;-1.204;2023-05-17T02:52:37;18.77;;;5.40;;
19406;SDS011;9839;53.364;-1.204;2023-05-17T02:55:02;20.40;;;5.50;;
19406;SDS011;9839;53.364;-1.204;2023-05-17T02:57:28;20.20;;;5.60;;
19406;SDS011;9839;53.364;-1.204;2023-05-17T02:59:53;14.30;;;5.77;;
19406;SDS011;9839;53.364;-1.204;2023-05-17T03:02:19;16.07;;;5.73;;
19406;SDS011;9839;53.364;-1.204;2023-05-17T03:04:44;17.07;;;6.87;;
19406;SDS011;9839;53.364;-1.204;2023-05-17T03:07:10;19.80;;;6.60;;
19406;SDS011;9839;53.364;-1.204;2023-05-17T03:09:35;17.47;;;6.00;;
19406;SDS011;9839;53.364;-1.204;2023-05-17T03:12:01;18.00;;;5.73;;
19406;SDS011;9839;53.364;-1.204;2023-05-17T03:14:27;13.60;;;5.67;;
19406;SDS011;9839;53.364;-1.204;2023-05-17T03:16:52;22.67;;;5.50;;
19406;SDS011;9839;53.364;-1.204;2023-05-17T03:19:18;17.60;;;5.50;;
19406;SDS011;9839;53.364;-1.204;2023-05-17T03:21:43;15.93;;;6.00;;
19406;SDS011;9839;53.364;-1.204;2023-05-17T03:24:08;19.30;;;6.30;;
19406;SDS011;9839;53.364;-1.204;2023-05-17T03:26:34;15.23;;;5.77;;
19406;SDS011;9839;53.364;-1.204;2023-05-17T03:28:59;15.87;;;5.73;;
19406;SDS011;9839;53.364;-1.204;2023-05-17T03:31:25;11.80;;;5.70;;
19406;SDS011;9839;53.364;-1.204;2023-05-17T03:33:50;17.57;;;6.30;;
19406;SDS011;9839;53.364;-1.204;2023-05-17T03:36:15;15.30;;;5.83;;
19406;SDS011;9839;53.364;-1.204;2023-05-17T03:38:41;12.63;;;5.13;;
19406;SDS011;9839;53.364;-1.204;2023-05-17T03:41:06;16.07;;;5.07;;
19406;SDS011;9839;53.364;-1.204;2023-05-17T03:43:32;13.77;;;4.97;;
19406;SDS011;9839;53.364;-1.204;2023-05-17T03:45:57;15.57;;;6.07;;
19406;SDS011;9839;53.364;-1.204;2023-05-17T03:48:23;19.20;;;6.57;;
19406;SDS011;9839;53.364;-1.204;2023-05-17T03:50:48;23.73;;;7.10;;
19406;SDS011;9839;53.364;-1.204;2023-05-17T03:53:14;19.50;;;7.10;;
19406;SDS011;9839;53.364;-1.204;2023-05-17T03:55:39;20.60;;;7.17;;
19406;SDS011;9839;53.364;-1.204;2023-05-17T03:58:05;19.40;;;6.40;;
19406;SDS011;9839;53.364;-1.204;2023-05-17T04:00:31;16.07;;;6.10;;
19406;SDS011;9839;53.364;-1.204;2023-05-17T04:02:56;14.47;;;6.03;;
19406;SDS011;9839;53.364;-1.204;2023-05-17T04:05:21;22.03;;;6.63;;
19406;SDS011;9839;53.364;-1.204;2023-05-17T04:07:47;17.50;;;5.80;;
19406;SDS011;9839;53.364;-1.204;2023-05-17T04:10:12;20.10;;;5.80;;
19406;SDS011;9839;53.364;-1.204;2023-05-17T04:12:38;17.73;;;5.20;;
19406;SDS011;9839;53.364;-1.204;2023-05-17T04:15:03;16.90;;;5.63;;
19406;SDS011;9839;53.364;-1.204;2023-05-17T04:17:30;12.97;;;5.80;;
19406;SDS011;9839;53.364;-1.204;2023-05-17T04:19:55;12.10;;;5.47;;
19406;SDS011;9839;53.364;-1.204;2023-05-17T04:22:21;20.50;;;6.20;;
19406;SDS011;9839;53.364;-1.204;2023-05-17T04:24:46;13.37;;;5.50;;
19406;SDS011;9839;53.364;-1.204;2023-05-17T04:27:11;16.43;;;5.70;;
19406;SDS011;9839;53.364;-1.204;2023-05-17T04:29:37;16.87;;;6.10;;
19406;SDS011;9839;53.364;-1.204;2023-05-17T04:32:02;12.17;;;5.83;;
19406;SDS011;9839;53.364;-1.204;2023-05-17T04:34:28;12.77;;;5.60;;
19406;SDS011;9839;53.364;-1.204;2023-05-17T04:36:55;12.90;;;6.07;;
19406;SDS011;9839;53.364;-1.204;2023-05-17T04:39:21;14.80;;;5.73;;
19406;SDS011;9839;53.364;-1.204;2023-05-17T04:41:47;12.70;;;5.50;;
19406;SDS011;9839;53.364;-1.204;2023-05-17T04:44:12;12.53;;;5.83;;
19406;SDS011;9839;53.364;-1.204;2023-05-17T04:46:37;17.33;;;6.07;;
19406;SDS011;9839;53.364;-1.204;2023-05-17T04:49:03;12.30;;;5.13;;
19406;SDS011;9839;53.364;-1.204;2023-05-17T04:51:29;18.73;;;6.67;;
19406;SDS011;9839;53.364;-1.204;2023-05-17T04:53:55;16.40;;;7.03;;
19406;SDS011;9839;53.364;-1.204;2023-05-17T04:56:20;19.27;;;6.13;;
19406;SDS011;9839;53.364;-1.204;2023-05-17T04:58:46;15.73;;;5.80;;
19406;SDS011;9839;53.364;-1.204;2023-05-17T05:01:12;13.07;;;5.50;;
19406;SDS011;9839;53.364;-1.204;2023-05-17T05:03:37;16.10;;;6.90;;
19406;SDS011;9839;53.364;-1.204;2023-05-17T05:06:03;13.50;;;6.20;;
19406;SDS011;9839;53.364;-1.204;2023-05-17T05:08:28;15.00;;;5.60;;
19406;SDS011;9839;53.364;-1.204;2023-05-17T05:10:54;13.77;;;5.77;;
19406;SDS011;9839;53.364;-1.204;2023-05-17T05:13:20;17.73;;;5.67;;
19406;SDS011;9839;53.364;-1.204;2023-05-17T05:15:46;12.20;;;4.77;;
19406;SDS011;9839;53.364;-1.204;2023-05-17T05:18:11;18.97;;;6.47;;
19406;SDS011;9839;53.364;-1.204;2023-05-17T05:20:37;18.23;;;5.70;;
19406;SDS011;9839;53.364;-1.204;2023-05-17T05:23:02;10.57;;;5.53;;
19406;SDS011;9839;53.364;-1.204;2023-05-17T05:25:30;16.07;;;6.27;;
19406;SDS011;9839;53.364;-1.204;2023-05-17T05:27:55;20.17;;;6.10;;
19406;SDS011;9839;53.364;-1.204;2023-05-17T05:30:21;12.60;;;5.63;;
19406;SDS011;9839;53.364;-1.204;2023-05-17T05:32:47;11.67;;;5.50;;
19406;SDS011;9839;53.364;-1.204;2023-05-17T05:35:13;15.40;;;6.50;;
19406;SDS011;9839;53.364;-1.204;2023-05-17T05:37:40;14.63;;;6.20;;
19406;SDS011;9839;53.364;-1.204;2023-05-17T05:40:06;18.73;;;6.87;;
19406;SDS011;9839;53.364;-1.204;2023-05-17T05:42:33;21.07;;;7.67;;
19406;SDS011;9839;53.364;-1.204;2023-05-17T05:44:58;16.13;;;7.53;;
19406;SDS011;9839;53.364;-1.204;2023-05-17T05:47:24;13.53;;;7.07;;
19406;SDS011;9839;53.364;-1.204;2023-05-17T05:49:49;18.63;;;7.30;;
19406;SDS011;9839;53.364;-1.204;2023-05-17T05:52:15;21.90;;;7.57;;
19406;SDS011;9839;53.364;-1.204;2023-05-17T05:54:40;17.93;;;7.67;;
19406;SDS011;9839;53.364;-1.204;2023-05-17T05:57:06;19.47;;;7.43;;
19406;SDS011;9839;53.364;-1.204;2023-05-17T05:59:31;14.93;;;6.77;;
19406;SDS011;9839;53.364;-1.204;2023-05-17T06:01:57;16.50;;;6.80;;
19406;SDS011;9839;53.364;-1.204;2023-05-17T06:04:22;18.67;;;6.95;;
19406;SDS011;9839;53.364;-1.204;2023-05-17T06:06:49;21.83;;;6.82;;
19406;SDS011;9839;53.364;-1.204;2023-05-17T06:09:14;18.80;;;5.82;;
19406;SDS011;9839;53.364;-1.204;2023-05-17T06:11:40;21.13;;;6.47;;
19406;SDS011;9839;53.364;-1.204;2023-05-17T06:14:06;14.50;;;6.68;;
19406;SDS011;9839;53.364;-1.204;2023-05-17T06:16:32;17.95;;;7.20;;
19406;SDS011;9839;53.364;-1.204;2023-05-17T06:18:57;17.73;;;6.97;;
19406;SDS011;9839;53.364;-1.204;2023-05-17T06:21:23;21.50;;;7.55;;
19406;SDS011;9839;53.364;-1.204;2023-05-17T06:23:49;18.13;;;7.03;;
19406;SDS011;9839;53.364;-1.204;2023-05-17T06:26:14;17.38;;;6.60;;
19406;SDS011;9839;53.364;-1.204;2023-05-17T06:28:40;19.63;;;7.10;;
19406;SDS011;9839;53.364;-1.204;2023-05-17T06:31:05;22.02;;;7.57;;
19406;SDS011;9839;53.364;-1.204;2023-05-17T06:33:31;21.00;;;6.72;;
19406;SDS011;9839;53.364;-1.204;2023-05-17T06:35:56;18.02;;;7.15;;
19406;SDS011;9839;53.364;-1.204;2023-05-17T06:38:22;18.55;;;6.88;;
19406;SDS011;9839;53.364;-1.204;2023-05-17T06:40:54;18.08;;;6.25;;
19406;SDS011;9839;53.364;-1.204;2023-05-17T06:43:20;15.43;;;6.22;;
19406;SDS011;9839;53.364;-1.204;2023-05-17T06:45:45;16.95;;;6.50;;
19406;SDS011;9839;53.364;-1.204;2023-05-17T06:48:11;20.30;;;5.97;;
19406;SDS011;9839;53.364;-1.204;2023-05-17T06:50:37;16.75;;;5.95;;
19406;SDS011;9839;53.364;-1.204;2023-05-17T06:53:02;15.35;;;5.88;;
19406;SDS011;9839;53.364;-1.204;2023-05-17T06:55:28;17.90;;;5.07;;
19406;SDS011;9839;53.364;-1.204;2023-05-17T06:57:54;10.10;;;4.57;;
19406;SDS011;9839;53.364;-1.204;2023-05-17T07:00:19;17.23;;;5.65;;
19406;SDS011;9839;53.364;-1.204;2023-05-17T07:02:45;14.30;;;4.10;;
19406;SDS011;9839;53.364;-1.204;2023-05-17T07:05:11;11.32;;;4.10;;
19406;SDS011;9839;53.364;-1.204;2023-05-17T07:07:36;11.73;;;4.32;;
19406;SDS011;9839;53.364;-1.204;2023-05-17T07:10:02;17.25;;;4.97;;
19406;SDS011;9839;53.364;-1.204;2023-05-17T07:12:31;15.52;;;4.32;;
19406;SDS011;9839;53.364;-1.204;2023-05-17T07:14:57;15.23;;;4.53;;
19406;SDS011;9839;53.364;-1.204;2023-05-17T07:17:22;8.15;;;3.83;;
19406;SDS011;9839;53.364;-1.204;2023-05-17T07:19:48;11.32;;;3.95;;
19406;SDS011;9839;53.364;-1.204;2023-05-17T07:22:16;9.70;;;3.78;;
19406;SDS011;9839;53.364;-1.204;2023-05-17T07:24:43;10.70;;;3.22;;
19406;SDS011;9839;53.364;-1.204;2023-05-17T07:27:09;11.27;;;3.83;;
19406;SDS011;9839;53.364;-1.204;2023-05-17T07:29:34;9.77;;;3.30;;
19406;SDS011;9839;53.364;-1.204;2023-05-17T07:32:00;11.27;;;3.53;;
19406;SDS011;9839;53.364;-1.204;2023-05-17T07:34:25;12.95;;;3.63;;
19406;SDS011;9839;53.364;-1.204;2023-05-17T07:36:50;8.60;;;4.00;;
19406;SDS011;9839;53.364;-1.204;2023-05-17T07:39:16;10.50;;;2.88;;
19406;SDS011;9839;53.364;-1.204;2023-05-17T07:41:41;14.20;;;3.50;;
19406;SDS011;9839;53.364;-1.204;2023-05-17T07:44:07;10.50;;;3.22;;
19406;SDS011;9839;53.364;-1.204;2023-05-17T07:46:32;13.45;;;3.65;;
19406;SDS011;9839;53.364;-1.204;2023-05-17T07:48:58;10.85;;;3.47;;
19406;SDS011;9839;53.364;-1.204;2023-05-17T07:51:23;10.38;;;2.97;;
19406;SDS011;9839;53.364;-1.204;2023-05-17T07:53:48;10.55;;;3.25;;
19406;SDS011;9839;53.364;-1.204;2023-05-17T07:56:14;15.15;;;3.22;;
19406;SDS011;9839;53.364;-1.204;2023-05-17T07:58:39;12.35;;;3.13;;
19406;SDS011;9839;53.364;-1.204;2023-05-17T08:01:05;12.40;;;3.42;;
19406;SDS011;9839;53.364;-1.204;2023-05-17T08:03:30;12.07;;;3.70;;
19406;SDS011;9839;53.364;-1.204;2023-05-17T08:05:56;8.10;;;3.20;;
19406;SDS011;9839;53.364;-1.204;2023-05-17T08:08:21;13.45;;;3.90;;
19406;SDS011;9839;53.364;-1.204;2023-05-17T08:10:47;10.88;;;3.42;;
19406;SDS011;9839;53.364;-1.204;2023-05-17T08:13:12;11.15;;;3.45;;
19406;SDS011;9839;53.364;-1.204;2023-05-17T08:15:38;11.82;;;3.78;;
19406;SDS011;9839;53.364;-1.204;2023-05-17T08:18:03;16.27;;;3.90;;
19406;SDS011;9839;53.364;-1.204;2023-05-17T08:20:28;13.35;;;3.45;;
19406;SDS011;9839;53.364;-1.204;2023-05-17T08:22:54;12.73;;;3.35;;
19406;SDS011;9839;53.364;-1.204;2023-05-17T08:25:20;10.13;;;3.35;;
19406;SDS011;9839;53.364;-1.204;2023-05-17T08:27:45;9.13;;;3.20;;
19406;SDS011;9839;53.364;-1.204;2023-05-17T08:30:11;11.60;;;3.17;;
19406;SDS011;9839;53.364;-1.204;2023-05-17T08:32:36;6.45;;;3.30;;
19406;SDS011;9839;53.364;-1.204;2023-05-17T08:35:02;15.45;;;3.60;;
19406;SDS011;9839;53.364;-1.204;2023-05-17T08:37:29;14.20;;;3.28;;
19406;SDS011;9839;53.364;-1.204;2023-05-17T08:39:55;12.10;;;3.35;;
19406;SDS011;9839;53.364;-1.204;2023-05-17T08:42:21;13.10;;;3.47;;
19406;SDS011;9839;53.364;-1.204;2023-05-17T08:44:49;10.77;;;3.40;;
19406;SDS011;9839;53.364;-1.204;2023-05-17T08:47:15;9.30;;;3.58;;
19406;SDS011;9839;53.364;-1.204;2023-05-17T08:49:50;10.60;;;3.63;;
19406;SDS011;9839;53.364;-1.204;2023-05-17T08:52:19;12.00;;;3.83;;
19406;SDS011;9839;53.364;-1.204;2023-05-17T08:54:46;12.13;;;3.83;;
19406;SDS011;9839;53.364;-1.204;2023-05-17T08:57:12;11.18;;;3.47;;
19406;SDS011;9839;53.364;-1.204;2023-05-17T08:59:38;17.27;;;4.10;;
19406;SDS011;9839;53.364;-1.204;2023-05-17T09:02:04;10.57;;;3.70;;
19406;SDS011;9839;53.364;-1.204;2023-05-17T09:04:30;11.43;;;4.07;;
19406;SDS011;9839;53.364;-1.204;2023-05-17T09:06:56;9.27;;;4.13;;
19406;SDS011;9839;53.364;-1.204;2023-05-17T09:09:21;19.02;;;4.10;;
19406;SDS011;9839;53.364;-1.204;2023-05-17T09:11:47;8.55;;;3.58;;
19406;SDS011;9839;53.364;-1.204;2023-05-17T09:14:13;12.35;;;3.25;;
19406;SDS011;9839;53.364;-1.204;2023-05-17T09:16:40;9.48;;;3.08;;
19406;SDS011;9839;53.364;-1.204;2023-05-17T09:19:07;8.90;;;3.70;;
19406;SDS011;9839;53.364;-1.204;2023-05-17T09:21:33;7.07;;;2.85;;
19406;SDS011;9839;53.364;-1.204;2023-05-17T09:23:59;9.40;;;3.38;;
19406;SDS011;9839;53.364;-1.204;2023-05-17T09:26:25;10.70;;;3.30;;
19406;SDS011;9839;53.364;-1.204;2023-05-17T09:29:01;10.90;;;3.40;;
19406;SDS011;9839;53.364;-1.204;2023-05-17T09:31:32;13.25;;;3.40;;
19406;SDS011;9839;53.364;-1.204;2023-05-17T09:33:58;10.63;;;3.80;;
19406;SDS011;9839;53.364;-1.204;2023-05-17T09:36:24;7.95;;;3.30;;
19406;SDS011;9839;53.364;-1.204;2023-05-17T09:38:56;8.18;;;3.35;;
19406;SDS011;9839;53.364;-1.204;2023-05-17T09:41:32;9.75;;;3.40;;
19406;SDS011;9839;53.364;-1.204;2023-05-17T09:44:01;8.70;;;2.90;;
19406;SDS011;9839;53.364;-1.204;2023-05-17T09:46:31;9.02;;;3.30;;
19406;SDS011;9839;53.364;-1.204;2023-05-17T09:49:02;16.10;;;3.38;;
19406;SDS011;9839;53.364;-1.204;2023-05-17T09:54:01;12.50;;;4.15;;
19406;SDS011;9839;53.364;-1.204;2023-05-17T09:56:30;7.93;;;3.00;;
19406;SDS011;9839;53.364;-1.204;2023-05-17T09:58:56;11.32;;;2.80;;
19406;SDS011;9839;53.364;-1.204;2023-05-17T10:01:24;7.70;;;2.33;;
19406;SDS011;9839;53.364;-1.204;2023-05-17T10:03:51;10.98;;;2.90;;
19406;SDS011;9839;53.364;-1.204;2023-05-17T10:06:17;4.53;;;2.80;;
19406;SDS011;9839;53.364;-1.204;2023-05-17T10:08:45;4.07;;;2.20;;
19406;SDS011;9839;53.364;-1.204;2023-05-17T10:11:15;6.78;;;3.65;;
19406;SDS011;9839;53.364;-1.204;2023-05-17T10:16:34;6.90;;;2.67;;
19406;SDS011;9839;53.364;-1.204;2023-05-17T10:19:00;6.80;;;2.58;;
19406;SDS011;9839;53.364;-1.204;2023-05-17T10:21:27;7.72;;;2.63;;
19406;SDS011;9839;53.364;-1.204;2023-05-17T10:23:54;6.30;;;2.33;;
19406;SDS011;9839;53.364;-1.204;2023-05-17T10:26:20;11.35;;;3.13;;
19406;SDS011;9839;53.364;-1.204;2023-05-17T10:28:46;10.27;;;2.95;;
19406;SDS011;9839;53.364;-1.204;2023-05-17T10:31:14;9.80;;;2.97;;
19406;SDS011;9839;53.364;-1.204;2023-05-17T10:33:39;6.20;;;2.60;;
19406;SDS011;9839;53.364;-1.204;2023-05-17T10:36:06;8.55;;;2.85;;
19406;SDS011;9839;53.364;-1.204;2023-05-17T10:38:32;8.32;;;2.85;;
19406;SDS011;9839;53.364;-1.204;2023-05-17T10:40:57;7.78;;;2.85;;
19406;SDS011;9839;53.364;-1.204;2023-05-17T10:43:23;6.00;;;2.33;;
19406;SDS011;9839;53.364;-1.204;2023-05-17T10:45:49;8.35;;;2.38;;
19406;SDS011;9839;53.364;-1.204;2023-05-17T10:48:16;11.68;;;2.78;;
19406;SDS011;9839;53.364;-1.204;2023-05-17T10:50:44;7.88;;;2.72;;
19406;SDS011;9839;53.364;-1.204;2023-05-17T10:53:10;12.43;;;2.75;;
19406;SDS011;9839;53.364;-1.204;2023-05-17T10:55:39;8.13;;;2.65;;
19406;SDS011;9839;53.364;-1.204;2023-05-17T11:00:41;6.38;;;2.72;;
19406;SDS011;9839;53.364;-1.204;2023-05-17T11:03:12;5.93;;;3.03;;
19406;SDS011;9839;53.364;-1.204;2023-05-17T11:12:04;10.30;;;2.92;;
19406;SDS011;9839;53.364;-1.204;2023-05-17T11:22:41;10.07;;;3.38;;
19406;SDS011;9839;53.364;-1.204;2023-05-17T11:25:08;9.40;;;2.90;;
19406;SDS011;9839;53.364;-1.204;2023-05-17T11:27:35;7.57;;;2.60;;
19406;SDS011;9839;53.364;-1.204;2023-05-17T11:30:24;9.50;;;2.65;;
19406;SDS011;9839;53.364;-1.204;2023-05-17T11:32:51;6.35;;;2.58;;
19406;SDS011;9839;53.364;-1.204;2023-05-17T11:35:18;9.10;;;3.00;;
19406;SDS011;9839;53.364;-1.204;2023-05-17T11:37:51;9.20;;;2.85;;
19406;SDS011;9839;53.364;-1.204;2023-05-17T11:40:24;10.60;;;2.78;;
19406;SDS011;9839;53.364;-1.204;2023-05-17T11:48:08;7.03;;;2.92;;
19406;SDS011;9839;53.364;-1.204;2023-05-17T11:50:35;7.32;;;3.40;;
19406;SDS011;9839;53.364;-1.204;2023-05-17T11:53:02;8.55;;;3.60;;
19406;SDS011;9839;53.364;-1.204;2023-05-17T11:55:30;8.93;;;3.00;;
19406;SDS011;9839;53.364;-1.204;2023-05-17T11:57:55;8.32;;;2.70;;
19406;SDS011;9839;53.364;-1.204;2023-05-17T12:00:23;7.90;;;2.80;;
19406;SDS011;9839;53.364;-1.204;2023-05-17T12:02:51;6.20;;;2.75;;
19406;SDS011;9839;53.364;-1.204;2023-05-17T12:05:19;7.00;;;2.90;;
19406;SDS011;9839;53.364;-1.204;2023-05-17T12:07:45;6.53;;;2.50;;
19406;SDS011;9839;53.364;-1.204;2023-05-17T12:10:13;8.02;;;2.83;;
19406;SDS011;9839;53.364;-1.204;2023-05-17T12:12:39;6.00;;;2.53;;
19406;SDS011;9839;53.364;-1.204;2023-05-17T12:15:05;6.50;;;2.80;;
19406;SDS011;9839;53.364;-1.204;2023-05-17T12:17:34;9.73;;;2.88;;
19406;SDS011;9839;53.364;-1.204;2023-05-17T12:20:06;7.60;;;3.03;;
19406;SDS011;9839;53.364;-1.204;2023-05-17T12:22:33;6.53;;;2.83;;
19406;SDS011;9839;53.364;-1.204;2023-05-17T12:24:58;7.15;;;2.65;;
19406;SDS011;9839;53.364;-1.204;2023-05-17T12:27:24;7.60;;;2.92;;
19406;SDS011;9839;53.364;-1.204;2023-05-17T12:29:51;6.00;;;3.00;;
19406;SDS011;9839;53.364;-1.204;2023-05-17T12:32:17;4.88;;;2.80;;
19406;SDS011;9839;53.364;-1.204;2023-05-17T12:34:43;9.35;;;4.90;;
19406;SDS011;9839;53.364;-1.204;2023-05-17T12:37:09;5.93;;;2.78;;
19406;SDS011;9839;53.364;-1.204;2023-05-17T12:39:37;9.13;;;2.83;;
19406;SDS011;9839;53.364;-1.204;2023-05-17T12:42:03;11.27;;;3.17;;
19406;SDS011;9839;53.364;-1.204;2023-05-17T12:44:28;4.93;;;2.55;;
19406;SDS011;9839;53.364;-1.204;2023-05-17T12:46:54;6.43;;;3.00;;
19406;SDS011;9839;53.364;-1.204;2023-05-17T12:49:21;8.75;;;3.60;;
19406;SDS011;9839;53.364;-1.204;2023-05-17T12:51:47;6.05;;;3.10;;
19406;SDS011;9839;53.364;-1.204;2023-05-17T12:54:28;6.47;;;2.83;;
19406;SDS011;9839;53.364;-1.204;2023-05-17T12:56:53;5.38;;;2.78;;
19406;SDS011;9839;53.364;-1.204;2023-05-17T12:59:19;7.97;;;2.70;;
19406;SDS011;9839;53.364;-1.204;2023-05-17T13:01:48;4.55;;;2.53;;
19406;SDS011;9839;53.364;-1.204;2023-05-17T13:04:16;8.98;;;2.83;;
19406;SDS011;9839;53.364;-1.204;2023-05-17T13:09:11;7.00;;;2.75;;
19406;SDS011;9839;53.364;-1.204;2023-05-17T13:11:40;8.43;;;3.10;;
19406;SDS011;9839;53.364;-1.204;2023-05-17T13:14:06;6.53;;;2.53;;
19406;SDS011;9839;53.364;-1.204;2023-05-17T13:16:36;6.93;;;2.83;;
19406;SDS011;9839;53.364;-1.204;2023-05-17T13:19:03;4.88;;;2.70;;
19406;SDS011;9839;53.364;-1.204;2023-05-17T13:21:36;4.60;;;2.60;;
19406;SDS011;9839;53.364;-1.204;2023-05-17T13:24:01;5.68;;;2.88;;
19406;SDS011;9839;53.364;-1.204;2023-05-17T13:26:27;9.88;;;3.00;;
19406;SDS011;9839;53.364;-1.204;2023-05-17T13:28:52;6.28;;;2.80;;
19406;SDS011;9839;53.364;-1.204;2023-05-17T13:31:17;109.78;;;8.52;;
19406;SDS011;9839;53.364;-1.204;2023-05-17T13:33:43;11.20;;;3.15;;
19406;SDS011;9839;53.364;-1.204;2023-05-17T13:36:09;5.32;;;2.40;;
19406;SDS011;9839;53.364;-1.204;2023-05-17T13:38:34;6.95;;;3.05;;
19406;SDS011;9839;53.364;-1.204;2023-05-17T13:40:59;10.82;;;3.38;;
19406;SDS011;9839;53.364;-1.204;2023-05-17T13:43:25;8.07;;;2.95;;
19406;SDS011;9839;53.364;-1.204;2023-05-17T13:45:50;6.57;;;2.83;;
19406;SDS011;9839;53.364;-1.204;2023-05-17T13:48:20;8.38;;;2.28;;
19406;SDS011;9839;53.364;-1.204;2023-05-17T13:50:46;5.45;;;2.65;;
19406;SDS011;9839;53.364;-1.204;2023-05-17T13:53:12;5.72;;;2.75;;
19406;SDS011;9839;53.364;-1.204;2023-05-17T13:55:38;6.65;;;2.63;;
19406;SDS011;9839;53.364;-1.204;2023-05-17T13:58:03;7.35;;;2.90;;
19406;SDS011;9839;53.364;-1.204;2023-05-17T14:00:29;5.00;;;2.78;;
19406;SDS011;9839;53.364;-1.204;2023-05-17T14:02:54;6.40;;;2.53;;
19406;SDS011;9839;53.364;-1.204;2023-05-17T14:05:20;4.65;;;2.63;;
19406;SDS011;9839;53.364;-1.204;2023-05-17T14:07:46;6.28;;;3.53;;
19406;SDS011;9839;53.364;-1.204;2023-05-17T14:10:11;5.55;;;2.80;;
19406;SDS011;9839;53.364;-1.204;2023-05-17T14:12:37;3.65;;;2.50;;
19406;SDS011;9839;53.364;-1.204;2023-05-17T14:15:03;5.25;;;3.15;;
19406;SDS011;9839;53.364;-1.204;2023-05-17T14:17:29;7.07;;;2.90;;
19406;SDS011;9839;53.364;-1.204;2023-05-17T14:19:54;6.07;;;2.90;;
19406;SDS011;9839;53.364;-1.204;2023-05-17T14:22:20;6.22;;;2.55;;
19406;SDS011;9839;53.364;-1.204;2023-05-17T14:24:46;3.67;;;2.35;;
19406;SDS011;9839;53.364;-1.204;2023-05-17T14:27:12;9.35;;;3.03;;
19406;SDS011;9839;53.364;-1.204;2023-05-17T14:29:37;9.98;;;2.90;;
19406;SDS011;9839;53.364;-1.204;2023-05-17T14:32:03;6.57;;;2.85;;
19406;SDS011;9839;53.364;-1.204;2023-05-17T14:34:28;9.68;;;2.97;;
19406;SDS011;9839;53.364;-1.204;2023-05-17T14:36:55;14.60;;;3.30;;
19406;SDS011;9839;53.364;-1.204;2023-05-17T14:39:20;5.32;;;2.58;;
19406;SDS011;9839;53.364;-1.204;2023-05-17T14:41:46;6.30;;;3.03;;
19406;SDS011;9839;53.364;-1.204;2023-05-17T14:44:12;5.85;;;2.40;;
19406;SDS011;9839;53.364;-1.204;2023-05-17T14:46:38;5.13;;;2.67;;
19406;SDS011;9839;53.364;-1.204;2023-05-17T14:49:03;6.80;;;2.75;;
19406;SDS011;9839;53.364;-1.204;2023-05-17T14:51:30;6.88;;;2.80;;
19406;SDS011;9839;53.364;-1.204;2023-05-17T14:53:55;9.45;;;3.15;;
19406;SDS011;9839;53.364;-1.204;2023-05-17T14:56:21;6.25;;;2.47;;
19406;SDS011;9839;53.364;-1.204;2023-05-17T14:58:47;5.88;;;2.63;;
19406;SDS011;9839;53.364;-1.204;2023-05-17T15:01:13;7.95;;;2.90;;
19406;SDS011;9839;53.364;-1.204;2023-05-17T15:03:39;4.85;;;2.58;;
19406;SDS011;9839;53.364;-1.204;2023-05-17T15:06:05;6.55;;;2.58;;
19406;SDS011;9839;53.364;-1.204;2023-05-17T15:08:31;6.95;;;3.05;;
19406;SDS011;9839;53.364;-1.204;2023-05-17T15:10:56;6.15;;;3.03;;